বাংলা English Search

Rain/thunder showers accompanied by temporary gusty/squally wind is likely to occur at a few places over Mymensingh and Sylhet divisions, at one or two places over Rangpur, Dhaka and Chattogram divisions with moderately heavy falls at places over Mymensingh and Sylhet divisions. Weather may remain mainly dry elsewhere over the country. 

TAF

TAF VGHS 160500Z 1606/1712 20010KT 4000 HZ SCT015 BKN100 TEMPO 1606/1612 30030G40KT 2000 TSRA/RA BKN008 FEW025CB OVC090 BECMG 1612/1614 16008KT 4000 HZ FEW015 SCT100 TEMPO 1615/1621 30030G40KT 2000 TSRA/RA BKN008 FEW025CB OVC090 BECMG1621/1623 16006KT 3000 HZ FEW012 SCT100=

TAF VGEG 152300Z 1600/1706 22004KT 4000 HZ FEW018 SCT100 TEMPO 1600/1604 26015G25KT 2000 -RA/TSRA SCT008 FEW025CB OVC090 BECMG 1606/1608 23008KT 4500 HZ FEW020 SCT100 BECMG 1616/1618 28005KT 3500 HZ SCT018 SCT100 TEMPO 1618/1703 24015G25KT 2000 -RA/TSRA SCT009 FEW025CB OVC090=

TAF VGSY 160400Z 1606/1712 12005KT 3500HZ SCT012 BKN100 BECMG 1618/1620 06004KT 3000HZ SCT015 BKN100 BECMG 1623/1701 06004KT 3000HZ SCT012 BKN100 BECMG 1703/1705 09005KT 3500HZ SCT015 TEMPO 1606/1706 28025G35KT 2000 TSRA/RA BKN007 FEW025CB OVC080=

    http://live.bmd.gov.bd/p/TAF-100/